sensor_id;sensor_type;location;lat;lon;timestamp;pressure;altitude;pressure_sealevel;temperature
69590;BMP180;56792;50.644;17.984;2023-03-16T18:50:56;100384.20;;;1.92
69590;BMP180;56792;50.644;17.984;2023-03-16T18:57:41;100381.60;;;1.70
69590;BMP180;56792;50.644;17.984;2023-03-16T19:00:48;100385.00;;;1.62
69590;BMP180;56792;50.644;17.984;2023-03-16T19:03:44;100386.00;;;1.60
69590;BMP180;56792;50.644;17.984;2023-03-16T19:06:30;100387.00;;;1.60
69590;BMP180;56792;50.644;17.984;2023-03-16T19:09:16;100393.00;;;1.48
69590;BMP180;56792;50.644;17.984;2023-03-16T19:11:56;100393.60;;;1.32
69590;BMP180;56792;50.644;17.984;2023-03-16T19:14:44;100391.40;;;1.20
69590;BMP180;56792;50.644;17.984;2023-03-16T19:17:26;100393.60;;;1.12
69590;BMP180;56792;50.644;17.984;2023-03-16T19:20:06;100393.60;;;1.10
69590;BMP180;56792;50.644;17.984;2023-03-16T19:22:48;100390.00;;;1.04
69590;BMP180;56792;50.644;17.984;2023-03-16T19:25:38;100394.00;;;1.00
69590;BMP180;56792;50.644;17.984;2023-03-16T19:28:27;100402.60;;;1.00
69590;BMP180;56792;50.644;17.984;2023-03-16T19:31:17;100409.60;;;0.90
69590;BMP180;56792;50.644;17.984;2023-03-16T19:33:54;100402.60;;;0.80
69590;BMP180;56792;50.644;17.984;2023-03-16T19:39:34;100403.20;;;0.70
69590;BMP180;56792;50.644;17.984;2023-03-16T19:42:26;100400.40;;;0.52
69590;BMP180;56792;50.644;17.984;2023-03-16T19:45:06;100398.40;;;0.40
69590;BMP180;56792;50.644;17.984;2023-03-16T19:47:49;100399.00;;;0.40
69590;BMP180;56792;50.644;17.984;2023-03-16T19:50:31;100400.00;;;0.30
69590;BMP180;56792;50.644;17.984;2023-03-16T19:53:15;100399.00;;;0.30
69590;BMP180;56792;50.644;17.984;2023-03-16T19:55:58;100398.60;;;0.20
69590;BMP180;56792;50.644;17.984;2023-03-16T19:58:39;100397.60;;;0.12
69590;BMP180;56792;50.644;17.984;2023-03-16T20:01:23;100397.00;;;0.14
69590;BMP180;56792;50.644;17.984;2023-03-16T20:04:02;100390.00;;;0.10
69590;BMP180;56792;50.644;17.984;2023-03-16T20:06:45;100392.80;;;0.00
69590;BMP180;56792;50.644;17.984;2023-03-16T20:09:19;100393.60;;;0.02
69590;BMP180;56792;50.644;17.984;2023-03-16T20:12:01;100394.20;;;-0.10
69590;BMP180;56792;50.644;17.984;2023-03-16T20:18:19;100401.00;;;-0.10
69590;BMP180;56792;50.644;17.984;2023-03-16T20:20:58;100402.80;;;-0.10
69590;BMP180;56792;50.644;17.984;2023-03-16T20:23:32;100403.80;;;-0.10
69590;BMP180;56792;50.644;17.984;2023-03-16T20:26:13;100404.00;;;-0.04
69590;BMP180;56792;50.644;17.984;2023-03-16T20:28:49;100407.20;;;-0.10
69590;BMP180;56792;50.644;17.984;2023-03-16T20:31:30;100409.40;;;-0.10
69590;BMP180;56792;50.644;17.984;2023-03-16T20:34:17;100404.40;;;-0.20
69590;BMP180;56792;50.644;17.984;2023-03-16T20:36:58;100410.00;;;-0.20
69590;BMP180;56792;50.644;17.984;2023-03-16T20:39:33;100406.40;;;-0.24
69590;BMP180;56792;50.644;17.984;2023-03-16T20:42:16;100407.40;;;-0.30
69590;BMP180;56792;50.644;17.984;2023-03-16T20:44:53;100400.40;;;-0.34
69590;BMP180;56792;50.644;17.984;2023-03-16T20:47:28;100400.60;;;-0.40
69590;BMP180;56792;50.644;17.984;2023-03-16T20:50:04;100406.20;;;-0.42
69590;BMP180;56792;50.644;17.984;2023-03-16T20:52:44;100406.60;;;-0.50
69590;BMP180;56792;50.644;17.984;2023-03-16T20:55:24;100407.40;;;-0.50
69590;BMP180;56792;50.644;17.984;2023-03-16T20:58:00;100402.80;;;-0.60
69590;BMP180;56792;50.644;17.984;2023-03-16T21:00:39;100399.20;;;-0.60
69590;BMP180;56792;50.644;17.984;2023-03-16T21:03:20;100406.20;;;-0.70
69590;BMP180;56792;50.644;17.984;2023-03-16T21:05:55;100404.40;;;-0.70
69590;BMP180;56792;50.644;17.984;2023-03-16T21:08:30;100405.00;;;-0.70
69590;BMP180;56792;50.644;17.984;2023-03-16T21:11:07;100400.00;;;-0.80
69590;BMP180;56792;50.644;17.984;2023-03-16T21:13:51;100402.60;;;-0.80
69590;BMP180;56792;50.644;17.984;2023-03-16T21:16:28;100403.00;;;-0.80
69590;BMP180;56792;50.644;17.984;2023-03-16T21:19:08;100403.20;;;-0.90
69590;BMP180;56792;50.644;17.984;2023-03-16T21:21:48;100398.80;;;-1.00
69590;BMP180;56792;50.644;17.984;2023-03-16T21:24:21;100406.80;;;-1.00
69590;BMP180;56792;50.644;17.984;2023-03-16T21:26:55;100405.20;;;-1.00
69590;BMP180;56792;50.644;17.984;2023-03-16T21:29:30;100396.20;;;-1.00
69590;BMP180;56792;50.644;17.984;2023-03-16T21:32:11;100391.80;;;-1.10
69590;BMP180;56792;50.644;17.984;2023-03-16T21:34:52;100380.60;;;-1.14
69590;BMP180;56792;50.644;17.984;2023-03-16T21:37:27;100377.60;;;-1.20
69590;BMP180;56792;50.644;17.984;2023-03-16T21:40:00;100374.00;;;-1.20
69590;BMP180;56792;50.644;17.984;2023-03-16T21:42:35;100367.80;;;-1.20
69590;BMP180;56792;50.644;17.984;2023-03-16T21:45:10;100371.80;;;-1.20
69590;BMP180;56792;50.644;17.984;2023-03-16T21:47:45;100375.00;;;-1.20
69590;BMP180;56792;50.644;17.984;2023-03-16T21:50:25;100378.20;;;-1.20
69590;BMP180;56792;50.644;17.984;2023-03-16T21:53:00;100375.80;;;-1.20
69590;BMP180;56792;50.644;17.984;2023-03-16T21:55:35;100375.20;;;-1.30
69590;BMP180;56792;50.644;17.984;2023-03-16T21:58:09;100370.40;;;-1.40
69590;BMP180;56792;50.644;17.984;2023-03-16T22:00:43;100362.20;;;-1.34
69590;BMP180;56792;50.644;17.984;2023-03-16T22:03:27;100364.00;;;-1.40
69590;BMP180;56792;50.644;17.984;2023-03-16T22:06:01;100365.20;;;-1.40
69590;BMP180;56792;50.644;17.984;2023-03-16T22:08:35;100362.00;;;-1.40
69590;BMP180;56792;50.644;17.984;2023-03-16T22:11:16;100359.80;;;-1.40
69590;BMP180;56792;50.644;17.984;2023-03-16T22:13:51;100363.20;;;-1.50
69590;BMP180;56792;50.644;17.984;2023-03-16T22:16:27;100358.80;;;-1.50
69590;BMP180;56792;50.644;17.984;2023-03-16T22:19:04;100360.40;;;-1.50
69590;BMP180;56792;50.644;17.984;2023-03-16T22:21:40;100359.40;;;-1.50
69590;BMP180;56792;50.644;17.984;2023-03-16T22:24:18;100353.80;;;-1.56
69590;BMP180;56792;50.644;17.984;2023-03-16T22:26:54;100353.80;;;-1.56
69590;BMP180;56792;50.644;17.984;2023-03-16T22:29:30;100348.40;;;-1.60
69590;BMP180;56792;50.644;17.984;2023-03-16T22:32:09;100347.80;;;-1.60
69590;BMP180;56792;50.644;17.984;2023-03-16T22:34:49;100346.20;;;-1.60
69590;BMP180;56792;50.644;17.984;2023-03-16T22:37:33;100336.00;;;-1.70
69590;BMP180;56792;50.644;17.984;2023-03-16T22:40:15;100339.20;;;-1.70
69590;BMP180;56792;50.644;17.984;2023-03-16T22:42:48;100344.00;;;-1.70
69590;BMP180;56792;50.644;17.984;2023-03-16T22:45:27;100342.80;;;-1.70
69590;BMP180;56792;50.644;17.984;2023-03-16T22:48:12;100345.80;;;-1.76
69590;BMP180;56792;50.644;17.984;2023-03-16T22:50:49;100349.00;;;-1.80
69590;BMP180;56792;50.644;17.984;2023-03-16T22:53:26;100351.60;;;-1.80
69590;BMP180;56792;50.644;17.984;2023-03-16T22:56:00;100357.60;;;-1.80
69590;BMP180;56792;50.644;17.984;2023-03-16T22:58:37;100366.80;;;-1.80
69590;BMP180;56792;50.644;17.984;2023-03-16T23:01:19;100370.40;;;-1.90
69590;BMP180;56792;50.644;17.984;2023-03-16T23:03:54;100370.60;;;-1.90
69590;BMP180;56792;50.644;17.984;2023-03-16T23:06:29;100365.60;;;-1.92
69590;BMP180;56792;50.644;17.984;2023-03-16T23:09:03;100359.40;;;-2.00
69590;BMP180;56792;50.644;17.984;2023-03-16T23:11:37;100353.80;;;-2.00
69590;BMP180;56792;50.644;17.984;2023-03-16T23:14:14;100357.00;;;-2.00
69590;BMP180;56792;50.644;17.984;2023-03-16T23:16:48;100359.80;;;-2.00
69590;BMP180;56792;50.644;17.984;2023-03-16T23:19:29;100357.00;;;-2.02
69590;BMP180;56792;50.644;17.984;2023-03-16T23:22:04;100355.60;;;-2.10
69590;BMP180;56792;50.644;17.984;2023-03-16T23:24:37;100358.40;;;-2.10
69590;BMP180;56792;50.644;17.984;2023-03-16T23:27:18;100365.40;;;-2.12
69590;BMP180;56792;50.644;17.984;2023-03-16T23:29:51;100373.00;;;-2.12
69590;BMP180;56792;50.644;17.984;2023-03-16T23:32:23;100372.60;;;-2.20
69590;BMP180;56792;50.644;17.984;2023-03-16T23:34:56;100377.20;;;-2.20
69590;BMP180;56792;50.644;17.984;2023-03-16T23:37:29;100376.20;;;-2.20
69590;BMP180;56792;50.644;17.984;2023-03-16T23:40:02;100370.60;;;-2.20
69590;BMP180;56792;50.644;17.984;2023-03-16T23:42:35;100380.40;;;-2.20
69590;BMP180;56792;50.644;17.984;2023-03-16T23:45:26;100380.40;;;-2.20
69590;BMP180;56792;50.644;17.984;2023-03-16T23:48:02;100385.40;;;-2.24
69590;BMP180;56792;50.644;17.984;2023-03-16T23:50:36;100396.20;;;-2.30
69590;BMP180;56792;50.644;17.984;2023-03-16T23:53:14;100394.20;;;-2.30
69590;BMP180;56792;50.644;17.984;2023-03-16T23:55:48;100396.60;;;-2.40
69590;BMP180;56792;50.644;17.984;2023-03-16T23:58:20;100392.20;;;-2.40
